ADDS METAR Data INFO
IDs: Format: Raw Decoded Include TAF

Data at: 1132 UTC 29 May 2017

KSHR 291053Z AUTO 30009KT 10SM BKN080 10/05 A3022 RMK AO2 SLP219 T01000050
KSHR 290953Z AUTO 30007KT 10SM SCT080 10/04 A3021 RMK AO2 SLP218 T01000044
KSHR 290853Z AUTO 28010KT 10SM FEW055 SCT085 10/05 A3021 RMK AO2 SLP218 T01000050 51002
KSHR 290753Z AUTO 30006KT 10SM FEW090 09/04 A3021 RMK AO2 SLP212 T00940044
KSHR 290653Z AUTO 33006KT 10SM CLR 09/04 A3020 RMK AO2 SLP212 T00890044 402220089
KSHR 290553Z AUTO 28011KT 10SM CLR 13/04 A3020 RMK AO2 SLP208 60000 T01280044 10161 20106 51002
KSHR 290453Z AUTO 27009KT 10SM BKN110 11/04 A3020 RMK AO2 SLP209 T01110044
KSHR 290353Z AUTO 28011KT 10SM FEW100 12/04 A3020 RMK AO2 SLP208 T01220044
KSHR 290253Z AUTO 28008KT 10SM CLR 11/06 A3019 RMK AO2 SLP208 60000 T01110056 55011
KSHR 290153Z AUTO 28012KT 10SM FEW095 SCT120 16/06 A3019 RMK AO2 SLP205 T01560061
KSHR 290053Z AUTO 26013KT 10SM BKN100 14/08 A3020 RMK AO2 LTG DSNT W RAE08 SLP210 P0000 T01390083
KSHR 282353Z AUTO 34017KT 10SM -RA FEW055 BKN070 OVC090 14/07 A3023 RMK AO2 PK WND 03028/2256 WSHFT 2241 RAB50 SLP227 P0000 60000 T01440072 10222 20133 53009
KSHR 282301Z AUTO 01017G28KT 10SM BKN070 BKN090 16/07 A3022 RMK AO2 PK WND 03028/2256 WSHFT 2241 T01610072
KSHR 282253Z AUTO 01020G28KT 10SM SCT070 19/06 A3021 RMK AO2 PK WND 02028/2251 PRESRR SLP212 T01890061
KSHR 282153Z AUTO 28012G22KT 10SM FEW070 SCT090 17/07 A3019 RMK AO2 PK WND 30033/2116 WSHFT 2053 RAB14E29 SLP207 P0000 T01720067
KSHR 282113Z AUTO 30024G31KT 10SM FEW070 BKN090 OVC110 16/07 A3022 RMK AO2 PK WND 30031/2113 WSHFT 2053 T01560067
KSHR 282053Z AUTO 36016G34KT 10SM FEW065 FEW075 BKN095 16/06 A3020 RMK AO2 PK WND 33046/2023 SLP214 T01610056 53001
KSHR 282029Z AUTO 35026G46KT 10SM SQ SCT075 SCT095 17/05 A3020 RMK AO2 PK WND 33046/2023 LTG DSNT NE T01720050
KSHR 281953Z AUTO 32017G25KT 10SM CLR 22/06 A3017 RMK AO2 PK WND 32026/1904 SLP197 T02170056
KSHR 281853Z AUTO 31016KT 10SM CLR 21/06 A3018 RMK AO2 LTG DSNT S SLP200 T02110056
KSHR 281753Z AUTO 34018G26KT 10SM SCT070 SCT080 19/07 A3020 RMK AO2 PK WND 33027/1737 SLP205 T01940067 10211 20106 50002
KSHR 281653Z AUTO 33017G24KT 10SM CLR 20/06 A3020 RMK AO2 PK WND 33032/1554 LTG DSNT S SLP204 T02000056
KSHR 281553Z AUTO 32023G30KT 10SM SCT080 BKN110 19/07 A3020 RMK AO2 PK WND 32030/1553 SLP205 T01940067
KSHR 281453Z AUTO 34013KT 10SM SCT100 19/06 A3019 RMK AO2 SLP202 T01890061 53013
KSHR 281353Z AUTO 02004KT 10SM CLR 17/07 A3018 RMK AO2 SLP197 T01670072
KSHR 281253Z AUTO 30011KT 10SM CLR 16/04 A3016 RMK AO2 SLP188 T01560044
KSHR 281153Z AUTO 26006KT 10SM CLR 11/04 A3015 RMK AO2 SLP191 T01110039 10139 20089 58002
KSHR 281053Z AUTO 27009KT 10SM BKN110 12/04 A3017 RMK AO2 SLP194 T01220044
KSHR 280953Z AUTO 30019KT 10SM FEW100 13/04 A3018 RMK AO2 PK WND 30026/0938 SLP199 T01330039
KSHR 280853Z AUTO 30007KT 10SM FEW110 12/03 A3015 RMK AO2 SLP191 T01170033 53004
KSHR 280753Z AUTO 27007KT 10SM CLR 09/04 A3014 RMK AO2 SLP191 T00940039
KSHR 280653Z AUTO 26009KT 10SM CLR 11/04 A3014 RMK AO2 SLP188 T01110039 402110017
KSHR 280553Z AUTO 25012KT 10SM BKN100 14/04 A3014 RMK AO2 SLP186 T01390044 10206 20133 50001
KSHR 280453Z AUTO 29014KT 10SM BKN120 15/04 A3015 RMK AO2 SLP189 T01500044
KSHR 280353Z AUTO 26013KT 10SM OVC095 14/06 A3014 RMK AO2 SLP190 T01390056
KSHR 280253Z AUTO 34015G21KT 10SM BKN090 OVC110 16/05 A3014 RMK AO2 SLP187 T01560050 53009
KSHR 280153Z AUTO 30005KT 10SM CLR 16/06 A3011 RMK AO2 SLP180 T01610061
KSHR 280053Z AUTO 32016KT 10SM BKN100 19/03 A3011 RMK AO2 SLP179 T01940028
KSHR 272353Z AUTO 32012KT 10SM CLR 20/03 A3011 RMK AO2 SLP184 T02000028 10211 20183 53004


Page loaded:  11:32 UTC  |   04:32 AM Pacific  |   05:32 AM Mountain  |   06:32 AM Central  |   07:32 AM Eastern

 

ADVISORIES

FORECASTS

FORECASTS

OBSERVATIONS

USER TOOLS

ABOUT US